Time;durP1;ratioP1;P1;durP2;ratioP2;P2;SDS_P1;SDS_P2;PMS_P1;PMS_P2;Temp;Humidity;BMP_temperature;BMP_pressure;BME280_temperature;BME280_humidity;BME280_pressure;Samples;Min_cycle;Max_cycle;Signal;HPM_P1;HPM_P2
2022/05/09 00:02:00;;;;;;;;;12.00;11.50;;;;;21.68;41.48;101968.84;5076601;27;45391;-56
2022/05/09 00:04:26;;;;;;;;;13.75;12.50;;;;;21.69;41.56;101970.56;5076548;27;45213;-51
2022/05/09 00:06:51;;;;;;;;;16.50;13.00;;;;;21.67;41.66;101969.78;5076137;27;45314;-55
2022/05/09 00:09:18;;;;;;;;;11.00;11.00;;;;;21.68;41.63;101966.22;5074384;28;45422;-49
2022/05/09 00:11:44;;;;;;;;;14.25;12.25;;;;;21.68;41.80;101971.50;5076334;27;45295;-56
2022/05/09 00:14:11;;;;;;;;;15.00;13.50;;;;;21.68;41.48;101972.38;5076218;27;45438;-53
2022/05/09 00:16:37;;;;;;;;;16.75;13.25;;;;;21.67;41.69;101968.00;5075974;27;46407;-52
2022/05/09 00:19:05;;;;;;;;;14.50;12.75;;;;;21.66;41.61;101966.28;5076213;27;45680;-52
2022/05/09 00:21:35;;;;;;;;;11.25;11.25;;;;;21.67;41.44;101972.41;5076469;27;45342;-50
2022/05/09 00:24:01;;;;;;;;;14.00;12.25;;;;;21.64;41.70;101965.50;5076626;27;45331;-58
2022/05/09 00:26:33;;;;;;;;;11.25;10.50;;;;;21.65;41.76;101964.56;5076044;28;46165;-60
2022/05/09 00:29:00;;;;;;;;;12.00;11.00;;;;;21.65;41.57;101966.38;5079835;28;45294;-60
2022/05/09 00:31:26;;;;;;;;;15.25;13.00;;;;;21.66;41.69;101968.09;5079618;27;45383;-58
2022/05/09 00:33:51;;;;;;;;;11.00;11.00;;;;;21.65;41.63;101972.47;5079811;28;45516;-55
2022/05/09 00:36:17;;;;;;;;;12.00;12.00;;;;;21.67;41.50;101972.41;5079295;27;45342;-58
2022/05/09 00:38:44;;;;;;;;;11.50;10.75;;;;;21.67;41.62;101972.41;5079357;28;45345;-53
2022/05/09 00:43:55;;;;;;;;;12.25;12.25;;;;;21.66;41.56;101973.38;5079645;28;45385;-53
2022/05/09 00:46:20;;;;;;;;;3.75;3.75;;;;;21.66;41.37;101976.00;5079159;27;46098;-51
2022/05/09 00:48:46;;;;;;;;;9.50;9.50;;;;;21.66;41.60;101973.38;5079161;27;45279;-53
2022/05/09 00:51:16;;;;;;;;;11.50;11.50;;;;;21.64;41.25;101972.56;5079286;28;45270;-56
2022/05/09 00:53:41;;;;;;;;;13.00;12.75;;;;;21.65;41.46;101977.75;5079388;28;45369;-51
2022/05/09 00:56:14;;;;;;;;;10.75;10.00;;;;;21.65;41.39;101974.28;5078920;28;46283;-54
2022/05/09 00:58:46;;;;;;;;;12.25;11.50;;;;;21.64;41.44;101973.41;5079212;27;45774;-56
2022/05/09 01:01:13;;;;;;;;;13.00;12.25;;;;;21.64;41.37;101969.94;5079158;27;45269;-54
2022/05/09 01:03:41;;;;;;;;;13.50;12.00;;;;;21.64;41.36;101972.56;5079334;27;45450;-54
2022/05/09 01:06:07;;;;;;;;;9.25;8.75;;;;;21.64;41.66;101972.56;5078739;27;46305;-52
2022/05/09 01:08:32;;;;;;;;;10.75;9.75;;;;;21.62;41.46;101970.84;5079064;27;45944;-51
2022/05/09 01:10:58;;;;;;;;;10.50;10.50;;;;;21.62;41.59;101959.41;5079030;28;45369;-55
2022/05/09 01:13:29;;;;;;;;;10.25;9.75;;;;;21.64;41.54;101969.94;5078980;27;45564;-53
2022/05/09 01:15:54;;;;;;;;;14.00;12.25;;;;;21.62;41.59;101960.28;5077525;28;45983;-49
2022/05/09 01:18:21;;;;;;;;;12.50;12.50;;;;;21.64;41.62;101962.00;5078857;27;45463;-54
2022/05/09 01:20:46;;;;;;;;;13.00;10.00;;;;;21.63;41.58;101961.13;5078317;27;45466;-59
2022/05/09 01:23:12;;;;;;;;;8.75;8.75;;;;;21.62;41.47;101962.94;5078976;27;45314;-57
2022/05/09 01:25:39;;;;;;;;;11.75;11.75;;;;;21.62;41.28;101965.56;5078510;27;46231;-60
2022/05/09 01:28:05;;;;;;;;;11.50;10.00;;;;;21.62;41.47;101964.69;5078811;28;45325;-53
2022/05/09 01:30:55;;;;;;;;;12.00;12.00;;;;;21.62;41.29;101959.41;5079076;27;45565;-57
2022/05/09 01:33:32;;;;;;;;;12.00;12.00;;;;;21.61;41.44;101968.25;5078906;27;45523;-60
2022/05/09 01:36:02;;;;;;;;;11.50;9.25;;;;;21.61;41.54;101958.56;5078425;27;46288;-57
2022/05/09 01:38:34;;;;;;;;;12.25;11.00;;;;;21.62;41.28;101964.69;5077337;27;45882;-50
2022/05/09 01:41:00;;;;;;;;;11.00;10.25;;;;;21.61;41.51;101966.50;5078479;27;45441;-55
2022/05/09 01:43:36;;;;;;;;;9.25;9.25;;;;;21.61;41.45;101970.88;5078702;28;45240;-55
2022/05/09 01:46:04;;;;;;;;;10.00;10.00;;;;;21.59;41.10;101960.41;5078647;27;45330;-52
2022/05/09 01:51:14;;;;;;;;;11.75;9.75;;;;;21.60;41.19;101962.13;5078167;28;45339;-59
2022/05/09 01:53:40;;;;;;;;;13.25;12.50;;;;;21.58;41.32;101958.66;5078668;28;45309;-60
2022/05/09 01:56:06;;;;;;;;;11.00;10.00;;;;;21.58;41.02;101948.09;5078202;27;46586;-56
2022/05/09 01:58:31;;;;;;;;;10.50;10.00;;;;;21.58;40.83;101953.38;5078167;27;45287;-58
2022/05/09 02:00:57;;;;;;;;;10.25;8.75;;;;;21.59;41.20;101952.50;5076848;28;45448;-55
2022/05/09 02:03:22;;;;;;;;;4.00;4.00;;;;;21.60;40.95;101956.00;5078384;27;45338;-51
2022/05/09 02:05:48;;;;;;;;;11.25;10.25;;;;;21.57;41.26;101951.66;5077899;28;46329;-59
2022/05/09 02:08:13;;;;;;;;;10.33;10.33;;;;;21.59;41.34;101960.41;5077499;28;52229;-53
2022/05/09 02:10:40;;;;;;;;;10.25;8.00;;;;;21.58;41.00;101956.03;5077785;28;45406;-49
2022/05/09 02:13:05;;;;;;;;;7.25;7.25;;;;;21.56;40.89;101952.59;5077236;28;45436;-49
2022/05/09 02:15:31;;;;;;;;;13.75;10.00;;;;;21.58;40.95;101952.53;5077660;27;45269;-52
2022/05/09 02:17:58;;;;;;;;;9.50;9.50;;;;;21.56;40.88;101955.22;5076538;28;45223;-57
2022/05/09 02:20:24;;;;;;;;;9.50;7.75;;;;;21.58;41.08;101955.19;5077994;27;45268;-54
2022/05/09 02:22:50;;;;;;;;;9.00;9.00;;;;;21.58;41.15;101947.25;5076724;28;45283;-56
2022/05/09 02:25:29;;;;;;;;;9.50;8.50;;;;;21.57;40.94;101949.03;5077600;27;46029;-50
2022/05/09 02:27:56;;;;;;;;;9.25;9.25;;;;;21.56;41.00;101952.59;5077717;27;45389;-55
2022/05/09 02:30:22;;;;;;;;;9.50;9.50;;;;;21.57;41.18;101950.81;5077974;28;45262;-56
2022/05/09 02:32:47;;;;;;;;;11.00;9.00;;;;;21.57;41.10;101950.81;5077954;28;45724;-51
2022/05/09 02:35:13;;;;;;;;;10.50;9.50;;;;;21.56;40.83;101944.66;5076207;28;46127;-52
2022/05/09 02:37:39;;;;;;;;;9.00;8.00;;;;;21.57;40.95;101950.81;5077817;27;45387;-49
2022/05/09 02:40:05;;;;;;;;;9.50;8.25;;;;;21.55;40.86;101947.38;5077856;28;45322;-51
2022/05/09 02:42:30;;;;;;;;;8.50;8.50;;;;;21.55;41.11;101945.59;5077600;27;45338;-52
2022/05/09 02:44:56;;;;;;;;;9.00;7.75;;;;;21.55;40.88;101953.50;5077083;28;54199;-52
2022/05/09 02:47:21;;;;;;;;;6.00;6.00;;;;;21.55;41.06;101948.22;5077061;28;53610;-52
2022/05/09 02:49:46;;;;;;;;;8.00;8.00;;;;;21.54;40.92;101943.91;5076946;28;50086;-53
2022/05/09 02:52:12;;;;;;;;;8.50;8.50;;;;;21.54;40.65;101943.91;5077659;28;45385;-49
2022/05/09 02:54:37;;;;;;;;;8.50;8.50;;;;;21.54;40.59;101938.63;5077504;28;46211;-49
2022/05/09 02:57:03;;;;;;;;;7.00;7.00;;;;;21.53;40.71;101939.53;5077112;28;45422;-50
2022/05/09 02:59:28;;;;;;;;;8.00;7.25;;;;;21.53;40.86;101939.53;5077359;27;45428;-54
2022/05/09 03:01:53;;;;;;;;;10.25;9.00;;;;;21.54;40.65;101937.75;5077398;28;45430;-57
2022/05/09 03:07:03;;;;;;;;;7.75;7.75;;;;;21.53;40.73;101923.72;5077022;28;45413;-59
2022/05/09 03:09:30;;;;;;;;;7.75;7.75;;;;;21.54;40.91;101929.84;5077116;28;45325;-60
2022/05/09 03:11:56;;;;;;;;;8.00;8.00;;;;;21.52;40.44;101932.56;5077352;27;45548;-57
2022/05/09 03:14:21;;;;;;;;;8.25;7.00;;;;;21.52;40.78;101937.84;5076718;28;46147;-53
2022/05/09 03:16:47;;;;;;;;;7.25;6.00;;;;;21.53;40.87;101938.66;5077115;27;45283;-55
2022/05/09 03:19:12;;;;;;;;;6.00;6.00;;;;;21.52;40.86;101929.03;5076979;27;45241;-54
2022/05/09 03:21:38;;;;;;;;;5.75;5.75;;;;;21.52;40.84;101937.84;5077481;27;45292;-56
2022/05/09 03:24:03;;;;;;;;;7.00;7.00;;;;;21.52;40.51;101929.91;5076785;28;46414;-53
2022/05/09 03:26:29;;;;;;;;;7.25;7.00;;;;;21.52;40.34;101931.69;5076886;27;45359;-49
2022/05/09 03:28:54;;;;;;;;;8.25;8.25;;;;;21.51;40.59;101924.69;5076881;28;45329;-49
2022/05/09 03:31:20;;;;;;;;;6.50;6.50;;;;;21.51;40.24;101932.59;5076941;27;45268;-51
2022/05/09 03:33:45;;;;;;;;;8.00;6.75;;;;;21.51;40.81;101935.22;5076516;28;49087;-51
2022/05/09 03:36:11;;;;;;;;;9.75;8.00;;;;;21.51;40.52;101936.09;5077091;28;45171;-57
2022/05/09 03:38:38;;;;;;;;;5.75;5.75;;;;;21.50;40.64;101928.28;5076846;27;45541;-58
2022/05/09 03:41:04;;;;;;;;;8.00;7.00;;;;;21.50;40.60;101930.91;5076813;27;45530;-59
2022/05/09 03:43:29;;;;;;;;;3.75;3.75;;;;;21.50;40.66;101933.56;5076550;27;46040;-54
2022/05/09 03:45:57;;;;;;;;;8.50;7.00;;;;;21.50;40.55;101926.47;5076606;28;45301;-54
2022/05/09 03:48:22;;;;;;;;;8.75;7.50;;;;;21.51;40.37;101935.22;5075240;28;45334;-60
2022/05/09 03:50:47;;;;;;;;;6.25;6.25;;;;;21.50;40.22;101931.75;5076877;28;45427;-52
2022/05/09 03:53:13;;;;;;;;;7.00;7.00;;;;;21.50;40.27;101929.13;5076347;28;46021;-51
2022/05/09 03:55:38;;;;;;;;;7.25;7.25;;;;;21.50;40.62;101923.84;5076423;28;52785;-59
2022/05/09 03:58:04;;;;;;;;;7.50;6.75;;;;;21.50;40.53;101920.38;5076616;28;45603;-59
2022/05/09 04:00:33;;;;;;;;;11.00;7.25;;;;;21.50;40.64;101928.28;5076701;27;45503;-56
2022/05/09 04:02:59;;;;;;;;;5.25;5.25;;;;;21.49;40.28;101931.84;5080053;27;46980;-53
2022/05/09 04:05:30;;;;;;;;;7.50;6.50;;;;;21.49;40.55;101937.09;5080081;27;45946;-58
2022/05/09 04:07:57;;;;;;;;;11.00;8.00;;;;;21.49;40.13;101930.03;5080208;27;45384;-59
2022/05/09 04:10:25;;;;;;;;;7.00;7.00;;;;;21.49;40.46;101934.47;5080140;27;45362;-58
2022/05/09 04:12:50;;;;;;;;;6.75;6.75;;;;;21.47;40.34;101930.13;5079734;27;45939;-51
2022/05/09 04:18:00;;;;;;;;;11.75;8.75;;;;;21.47;40.59;101922.19;5079893;28;45468;-59
2022/05/09 04:20:28;;;;;;;;;6.50;6.50;;;;;21.48;40.49;101930.97;5080069;28;45563;-60
2022/05/09 04:22:54;;;;;;;;;7.25;7.25;;;;;21.49;40.22;101931.84;5079683;28;46036;-58
2022/05/09 04:25:19;;;;;;;;;7.50;5.00;;;;;21.49;40.10;101931.84;5079334;27;45343;-57
2022/05/09 04:27:45;;;;;;;;;8.00;6.25;;;;;21.48;40.60;101936.22;5079754;28;45528;-48
2022/05/09 04:30:11;;;;;;;;;9.50;7.00;;;;;21.52;40.14;101936.94;5080010;27;45473;-61
2022/05/09 04:32:38;;;;;;;;;7.00;5.50;;;;;21.49;40.33;101943.22;5078215;28;46325;-59
2022/05/09 04:35:04;;;;;;;;;9.00;8.00;;;;;21.44;39.86;101932.88;5079412;27;45309;-59
2022/05/09 04:37:29;;;;;;;;;4.00;4.00;;;;;21.45;39.43;101928.44;5079545;28;45413;-57
2022/05/09 04:39:55;;;;;;;;;5.50;5.50;;;;;21.42;39.78;101928.59;5079696;28;45316;-53
2022/05/09 04:42:21;;;;;;;;;7.50;6.75;;;;;21.41;39.31;101924.22;5079205;28;46969;-50
2022/05/09 04:44:46;;;;;;;;;10.25;7.50;;;;;21.37;39.27;101925.28;5079244;27;45821;-52
2022/05/09 04:47:13;;;;;;;;;7.00;6.50;;;;;21.36;39.29;101923.56;5079370;27;45347;-53
2022/05/09 04:49:39;;;;;;;;;8.00;7.00;;;;;21.35;39.37;101935.03;5079404;27;45622;-50
2022/05/09 04:52:05;;;;;;;;;7.50;6.75;;;;;21.32;39.30;101938.66;5077693;28;47737;-52
2022/05/09 04:54:30;;;;;;;;;7.00;7.00;;;;;21.30;38.97;101933.44;5079181;27;45332;-52
2022/05/09 04:56:55;;;;;;;;;7.75;7.75;;;;;21.28;39.39;101937.06;5079129;27;47242;-49
2022/05/09 04:59:20;;;;;;;;;8.00;8.00;;;;;21.26;39.12;101937.13;5079364;28;45582;-53
2022/05/09 05:01:46;;;;;;;;;10.00;10.00;;;;;21.24;39.33;101928.41;5078984;28;48841;-52
2022/05/09 05:04:11;;;;;;;;;8.00;8.00;;;;;21.23;39.07;101926.69;5079183;27;45369;-52
2022/05/09 05:06:36;;;;;;;;;9.50;7.00;;;;;21.21;39.30;101922.41;5079353;28;45322;-51
2022/05/09 05:09:02;;;;;;;;;7.00;7.00;;;;;21.21;39.35;101932.97;5079351;28;45346;-50
2022/05/09 05:11:28;;;;;;;;;9.50;7.50;;;;;21.20;39.10;101932.13;5078898;27;46174;-50
2022/05/09 05:13:53;;;;;;;;;10.00;8.50;;;;;21.20;38.90;101937.38;5077402;27;45316;-50
2022/05/09 05:16:18;;;;;;;;;10.25;6.00;;;;;21.19;39.23;101932.16;5079035;28;45264;-49
2022/05/09 05:18:44;;;;;;;;;10.25;8.00;;;;;21.20;38.95;101937.38;5079106;27;45303;-51
2022/05/09 05:21:12;;;;;;;;;8.00;8.00;;;;;21.21;39.08;101932.97;5078743;28;47069;-51
2022/05/09 05:23:38;;;;;;;;;6.75;6.75;;;;;21.20;38.88;101942.66;5078782;28;45739;-53
2022/05/09 05:26:04;;;;;;;;;9.50;6.25;;;;;21.20;39.12;101939.16;5078753;27;45410;-52
2022/05/09 05:28:32;;;;;;;;;14.50;7.00;;;;;21.20;38.91;101941.78;5078862;27;45307;-54
2022/05/09 05:31:10;;;;;;;;;7.50;6.75;;;;;21.18;39.00;101939.22;5078530;28;47146;-54
2022/05/09 05:33:36;;;;;;;;;4.75;4.75;;;;;21.19;39.09;101938.31;5078272;27;45267;-55
2022/05/09 05:36:01;;;;;;;;;8.75;8.75;;;;;21.16;38.76;101939.28;5078568;28;45239;-52
2022/05/09 05:38:27;;;;;;;;;8.50;8.50;;;;;21.19;39.17;101942.69;5078536;28;45331;-53
2022/05/09 05:40:57;;;;;;;;;9.75;7.75;;;;;21.19;39.29;101940.94;5078314;27;46186;-53
2022/05/09 05:43:22;;;;;;;;;5.50;5.50;;;;;21.19;38.81;101943.59;5078670;27;45369;-53
2022/05/09 05:45:48;;;;;;;;;8.00;7.25;;;;;21.20;38.62;101945.28;5078591;28;50290;-55
2022/05/09 05:48:13;;;;;;;;;8.75;7.50;;;;;21.19;38.68;101951.50;5078874;28;45544;-54
2022/05/09 05:50:39;;;;;;;;;8.75;7.50;;;;;21.20;38.87;101947.06;5077968;28;54827;-51
2022/05/09 05:53:04;;;;;;;;;8.50;6.25;;;;;21.18;38.82;101949.78;5078264;27;45436;-56
2022/05/09 05:55:29;;;;;;;;;10.00;7.75;;;;;21.18;38.97;101947.13;5078274;28;45382;-54
2022/05/09 05:57:55;;;;;;;;;9.50;7.25;;;;;21.19;39.02;101943.59;5078256;28;45517;-53
2022/05/09 06:00:22;;;;;;;;;7.00;6.00;;;;;21.19;39.05;101940.94;5076680;28;46251;-56
2022/05/09 06:02:48;;;;;;;;;8.75;7.75;;;;;21.19;39.08;101937.44;5078476;27;45468;-54
2022/05/09 06:05:15;;;;;;;;;8.00;7.75;;;;;21.20;38.82;101937.38;5078136;27;45413;-47
2022/05/09 06:07:41;;;;;;;;;7.50;5.50;;;;;21.22;38.48;101934.69;5078435;27;45398;-54
2022/05/09 06:10:08;;;;;;;;;7.25;7.00;;;;;21.23;39.09;101952.22;5077878;27;46278;-52
2022/05/09 06:12:34;;;;;;;;;9.25;7.25;;;;;21.20;39.01;101952.34;5077912;28;45456;-46
2022/05/09 06:17:43;;;;;;;;;9.25;7.00;;;;;21.26;38.91;101957.38;5078150;28;45326;-47
2022/05/09 06:20:11;;;;;;;;;7.50;7.50;;;;;21.29;38.99;101958.09;5077652;27;45490;-57
2022/05/09 06:22:38;;;;;;;;;11.00;7.25;;;;;21.29;38.68;101951.94;5077880;27;45447;-58
2022/05/09 06:25:06;;;;;;;;;9.25;8.75;;;;;21.29;38.76;101952.81;5077365;27;45231;-55
2022/05/09 06:27:32;;;;;;;;;8.50;6.75;;;;;21.29;38.91;101952.81;5077757;28;45444;-55
2022/05/09 06:30:00;;;;;;;;;8.75;7.50;;;;;21.30;38.93;101965.09;5077599;27;45462;-56
2022/05/09 06:32:25;;;;;;;;;11.50;9.25;;;;;21.30;38.67;101958.94;5077560;27;45861;-56
2022/05/09 06:34:51;;;;;;;;;8.75;7.25;;;;;21.29;38.66;101960.75;5078000;27;45342;-56
2022/05/09 06:37:17;;;;;;;;;9.25;9.25;;;;;21.29;38.46;101960.75;5078195;28;45310;-56
2022/05/09 06:39:42;;;;;;;;;7.00;6.75;;;;;21.27;39.06;101962.56;5077547;27;45915;-55
2022/05/09 06:42:08;;;;;;;;;4.25;4.25;;;;;21.29;38.48;101960.75;5077520;27;45341;-55
2022/05/09 06:44:35;;;;;;;;;9.25;7.00;;;;;21.30;38.70;101961.59;5077632;27;45322;-57
2022/05/09 06:47:01;;;;;;;;;9.00;9.00;;;;;21.30;38.57;101967.72;5077771;27;45418;-57
2022/05/09 06:49:26;;;;;;;;;9.75;7.75;;;;;21.31;38.75;101972.09;5077239;28;46157;-55
2022/05/09 06:51:52;;;;;;;;;3.75;2.00;;;;;21.32;38.98;101975.56;5077586;28;45309;-55
2022/05/09 06:54:20;;;;;;;;;8.50;8.00;;;;;21.31;38.77;101977.34;5077849;27;45790;-54
2022/05/09 06:56:45;;;;;;;;;8.00;7.00;;;;;21.33;38.37;101979.09;5077619;28;45306;-55
2022/05/09 06:59:11;;;;;;;;;7.25;7.00;;;;;21.34;38.81;101978.13;5077206;28;46254;-55
2022/05/09 07:01:37;;;;;;;;;13.75;9.75;;;;;21.30;38.91;101970.38;5077267;28;45263;-56
2022/05/09 07:04:03;;;;;;;;;10.00;8.00;;;;;21.34;38.83;101975.50;5077287;27;45189;-55
2022/05/09 07:06:28;;;;;;;;;8.00;8.00;;;;;21.34;38.48;101976.38;5076144;28;45617;-56
2022/05/09 07:08:54;;;;;;;;;9.75;8.25;;;;;21.35;38.75;101964.03;5076959;27;48724;-58
2022/05/09 07:11:19;;;;;;;;;11.25;7.50;;;;;21.35;38.89;101977.22;5076881;28;54726;-55
2022/05/09 07:13:44;;;;;;;;;9.25;7.50;;;;;21.35;38.71;101974.56;5077151;27;45539;-54
2022/05/09 07:16:11;;;;;;;;;9.00;9.00;;;;;21.36;38.40;101976.28;5077368;27;45189;-54
2022/05/09 07:18:38;;;;;;;;;8.75;7.75;;;;;21.36;38.44;101971.91;5076752;28;46345;-57
2022/05/09 07:21:03;;;;;;;;;6.50;6.50;;;;;21.36;38.77;101974.53;5076996;27;46075;-57
2022/05/09 07:23:29;;;;;;;;;13.25;8.50;;;;;21.38;38.62;101971.81;5077133;27;45299;-56
2022/05/09 07:25:55;;;;;;;;;12.00;9.25;;;;;21.40;38.93;101983.16;5077107;27;45567;-56
2022/05/09 07:28:22;;;;;;;;;8.00;7.00;;;;;21.40;38.85;101970.00;5076932;27;47056;-54
2022/05/09 07:30:49;;;;;;;;;9.25;8.00;;;;;21.42;38.68;101976.06;5075428;28;45411;-56
2022/05/09 07:33:18;;;;;;;;;12.25;8.00;;;;;21.38;38.55;101967.41;5077126;27;45257;-54
2022/05/09 07:35:44;;;;;;;;;11.25;9.00;;;;;21.42;38.71;101979.53;5075932;28;45383;-56
2022/05/09 07:38:11;;;;;;;;;16.75;9.50;;;;;21.44;38.53;101982.13;5076593;27;46283;-48
2022/05/09 07:40:37;;;;;;;;;15.00;11.00;;;;;21.44;38.73;101976.88;5076683;27;45185;-52
2022/05/09 07:43:08;;;;;;;;;15.00;10.25;;;;;21.44;38.82;101972.44;5075514;28;45305;-54
2022/05/09 07:45:33;;;;;;;;;16.25;11.00;;;;;21.45;38.72;101970.63;5076972;27;45290;-56
2022/05/09 07:47:59;;;;;;;;;15.25;12.50;;;;;21.47;38.69;101968.81;5076568;27;45446;-56
2022/05/09 07:50:25;;;;;;;;;16.75;13.50;;;;;21.49;38.73;101974.88;5076762;28;45516;-57
2022/05/09 07:52:50;;;;;;;;;17.25;12.50;;;;;21.50;38.88;101966.03;5077241;27;45383;-58
2022/05/09 07:55:15;;;;;;;;;11.75;9.25;;;;;21.54;38.97;101958.84;5075452;28;45431;-52
2022/05/09 07:57:41;;;;;;;;;10.50;9.00;;;;;21.55;38.71;101960.56;5076491;27;46090;-51
2022/05/09 08:00:07;;;;;;;;;15.50;11.75;;;;;21.54;39.01;101956.22;5076469;27;45660;-49
2022/05/09 08:02:32;;;;;;;;;11.75;9.00;;;;;21.54;38.74;101962.38;5076609;27;45300;-50
2022/05/09 08:04:58;;;;;;;;;13.75;11.00;;;;;21.57;38.69;101964.84;5076686;28;45329;-50
2022/05/09 08:07:24;;;;;;;;;10.25;10.00;;;;;21.58;39.12;101966.56;5076470;28;45259;-49
2022/05/09 08:09:49;;;;;;;;;13.50;11.00;;;;;21.55;39.13;101964.06;5076206;28;45259;-53
2022/05/09 08:12:14;;;;;;;;;12.25;11.50;;;;;21.58;38.72;101961.28;5076429;28;45283;-50
2022/05/09 08:14:40;;;;;;;;;13.25;8.75;;;;;21.60;38.84;101966.56;5076356;27;45286;-54
2022/05/09 08:17:09;;;;;;;;;10.75;9.50;;;;;21.59;38.91;101963.03;5076097;27;47194;-50
2022/05/09 08:19:34;;;;;;;;;16.00;12.00;;;;;21.62;38.78;101960.28;5075658;28;45897;-51
2022/05/09 08:22:01;;;;;;;;;13.25;10.25;;;;;21.64;38.93;101967.28;5076205;28;45336;-49
2022/05/09 08:24:28;;;;;;;;;13.00;11.75;;;;;21.64;38.92;101964.66;5076397;28;45611;-54
2022/05/09 08:26:53;;;;;;;;;14.25;13.25;;;;;21.67;38.83;101967.13;5076320;27;47043;-51
2022/05/09 08:29:18;;;;;;;;;15.50;11.75;;;;;21.66;38.72;101970.72;5075994;28;45534;-50
2022/05/09 08:31:44;;;;;;;;;14.25;13.00;;;;;21.70;38.81;101967.00;5076098;27;45247;-48
2022/05/09 08:34:09;;;;;;;;;17.00;14.50;;;;;21.71;38.70;101964.34;5076261;28;45596;-48
2022/05/09 08:36:48;;;;;;;;;9.75;8.75;;;;;21.72;39.10;101967.81;5075699;28;50124;-53
2022/05/09 08:39:14;;;;;;;;;12.75;11.00;;;;;21.70;38.71;101962.63;5075705;27;45820;-51
2022/05/09 08:41:56;;;;;;;;;15.25;11.50;;;;;21.71;39.03;101969.59;5074778;28;45498;-48
2022/05/09 08:44:47;;;;;;;;;12.25;11.25;;;;;21.71;38.69;101968.72;5076561;27;45495;-48
2022/05/09 08:47:28;;;;;;;;;9.50;9.25;;;;;21.71;39.06;101971.38;5076989;27;46102;-56
2022/05/09 08:50:21;;;;;;;;;17.00;10.25;;;;;21.70;38.96;101957.34;5079460;28;45814;-49
2022/05/09 08:53:07;;;;;;;;;12.50;12.00;;;;;21.71;38.89;101966.97;5079485;27;45296;-49
2022/05/09 08:55:42;;;;;;;;;12.75;12.00;;;;;21.72;39.08;101976.56;5079469;28;45893;-48
2022/05/09 08:58:31;;;;;;;;;15.75;12.00;;;;;21.71;38.97;101963.47;5079532;28;46434;-49
2022/05/09 09:00:59;;;;;;;;;12.25;10.00;;;;;21.71;38.80;101961.69;5079459;28;45403;-49
2022/05/09 09:03:28;;;;;;;;;11.00;10.75;;;;;21.72;39.02;101954.63;5079580;27;45249;-50
2022/05/09 09:05:57;;;;;;;;;14.00;10.75;;;;;21.73;39.15;101956.34;5079595;27;45611;-47
2022/05/09 09:08:41;;;;;;;;;7.25;7.25;;;;;21.73;38.95;101956.34;5078916;27;46377;-48
2022/05/09 09:11:23;;;;;;;;;12.50;11.00;;;;;21.74;38.95;101963.34;5079123;28;45822;-51
2022/05/09 09:14:00;;;;;;;;;11.00;10.75;;;;;21.74;39.25;101952.78;5079091;27;45370;-50
2022/05/09 09:17:03;;;;;;;;;16.25;11.50;;;;;21.75;38.75;101955.34;5079556;27;45362;-51
2022/05/09 09:19:53;;;;;;;;;14.25;10.75;;;;;21.76;39.02;101949.13;5079111;28;46399;-47
2022/05/09 09:22:18;;;;;;;;;13.25;10.00;;;;;21.78;39.36;101947.31;5078908;28;45730;-42
2022/05/09 09:24:57;;;;;;;;;15.00;12.67;;;;;21.81;39.54;101934.91;5079080;28;45296;-50
2022/05/09 09:27:44;;;;;;;;;16.25;12.00;;;;;21.83;39.36;101938.34;5079099;27;45603;-53
2022/05/09 09:30:16;;;;;;;;;13.75;12.00;;;;;21.83;38.90;101936.53;5078346;27;46192;-55
2022/05/09 09:32:44;;;;;;;;;9.25;9.25;;;;;21.84;39.26;101937.38;5078693;27;45982;-48
2022/05/09 09:35:25;;;;;;;;;10.75;10.25;;;;;21.84;39.07;101937.38;5078667;27;45467;-56
2022/05/09 09:38:05;;;;;;;;;11.25;11.00;;;;;21.85;39.35;101939.97;5078937;27;45231;-54
2022/05/09 09:40:31;;;;;;;;;11.75;10.50;;;;;21.86;39.11;101946.09;5078462;27;46258;-54
2022/05/09 09:42:57;;;;;;;;;13.00;13.00;;;;;21.86;39.25;101936.41;5078857;27;45296;-50
2022/05/09 09:45:32;;;;;;;;;12.75;12.75;;;;;21.87;39.02;101940.78;5078504;27;45237;-57
2022/05/09 09:48:06;;;;;;;;;16.25;12.25;;;;;21.88;39.18;101947.75;5078889;27;45473;-60
2022/05/09 09:50:32;;;;;;;;;16.00;13.75;;;;;21.90;39.38;101945.06;5078187;28;47017;-54
2022/05/09 09:52:59;;;;;;;;;14.50;13.00;;;;;21.90;39.34;101943.25;5078735;28;45315;-53
2022/05/09 09:55:36;;;;;;;;;12.25;11.75;;;;;21.90;39.25;101943.25;5078499;27;45302;-61
2022/05/09 09:58:24;;;;;;;;;12.75;12.25;;;;;21.91;39.42;101937.06;5078359;27;45536;-57
2022/05/09 10:01:11;;;;;;;;;12.75;10.50;;;;;21.92;39.22;101930.84;5078118;27;48181;-54
2022/05/09 10:03:40;;;;;;;;;15.25;11.50;;;;;21.93;39.47;101929.94;5078204;28;45800;-52
2022/05/09 10:06:20;;;;;;;;;17.75;17.00;;;;;21.93;39.07;101935.22;5076941;28;45353;-53
2022/05/09 10:08:56;;;;;;;;;20.00;18.75;;;;;21.95;38.99;101924.56;5078296;27;45442;-51
2022/05/09 10:11:30;;;;;;;;;14.00;13.75;;;;;21.96;39.01;101933.38;5078093;27;46410;-51
2022/05/09 10:13:59;;;;;;;;;16.25;13.25;;;;;21.96;39.27;101926.28;5077910;27;45437;-57
2022/05/09 10:16:30;;;;;;;;;16.50;16.50;;;;;21.97;38.94;101921.88;5078081;27;45319;-53
2022/05/09 10:18:58;;;;;;;;;14.75;12.75;;;;;21.98;39.31;101918.31;5078352;27;45314;-56
2022/05/09 10:24:51;;;;;;;;;19.00;17.25;;;;;22.00;39.41;101911.16;5078221;28;45790;-56
2022/05/09 10:27:31;;;;;;;;;23.75;17.75;;;;;22.00;38.92;101912.03;5076644;28;45499;-49
2022/05/09 10:30:05;;;;;;;;;19.75;16.50;;;;;22.01;39.25;101904.97;5078139;27;45365;-53
2022/05/09 10:32:52;;;;;;;;;21.25;18.25;;;;;22.02;39.21;101907.56;5078081;27;45398;-57
2022/05/09 10:35:33;;;;;;;;;19.25;17.50;;;;;22.02;39.09;101904.91;5077783;27;45283;-49
2022/05/09 10:38:02;;;;;;;;;17.25;16.50;;;;;22.03;39.04;101908.41;5077956;27;45309;-52
2022/05/09 10:41:03;;;;;;;;;18.50;17.25;;;;;22.04;39.17;101902.19;5077950;27;45605;-49
2022/05/09 10:43:43;;;;;;;;;18.50;18.00;;;;;22.05;39.20;101901.28;5063805;27;46376;-56
2022/05/09 10:46:13;;;;;;;;;18.50;15.75;;;;;22.06;39.21;101905.63;5077612;28;45266;-49
2022/05/09 10:49:01;;;;;;;;;21.50;18.00;;;;;22.08;39.27;101895.88;5077459;27;45310;-52
2022/05/09 10:51:39;;;;;;;;;19.25;16.25;;;;;22.10;39.09;101886.09;5075805;27;45547;-52
2022/05/09 10:54:20;;;;;;;;;21.25;13.75;;;;;22.13;39.25;101896.50;5047003;28;46122;-49
2022/05/09 10:56:55;;;;;;;;;21.50;15.50;;;;;22.14;39.17;101892.94;5043441;28;45336;-50
2022/05/09 10:59:25;;;;;;;;;18.75;17.75;;;;;22.16;39.19;101891.09;5037078;28;45402;-49
2022/05/09 11:02:00;;;;;;;;;19.00;16.25;;;;;22.18;39.28;101889.25;5037096;28;45224;-62
2022/05/09 11:04:26;;;;;;;;;21.75;18.25;;;;;22.20;39.02;101887.41;5036656;28;46199;-51
2022/05/09 11:07:13;;;;;;;;;21.00;17.25;;;;;22.20;39.19;101886.53;5036697;28;45370;-53
2022/05/09 11:09:55;;;;;;;;;21.75;19.75;;;;;22.20;39.32;101879.47;5036763;28;45647;-54
2022/05/09 11:12:36;;;;;;;;;21.75;18.75;;;;;22.21;39.11;101883.78;5037044;28;45286;-56
2022/05/09 11:15:14;;;;;;;;;25.00;21.25;;;;;22.22;39.52;101882.88;5036330;28;46661;-54
2022/05/09 11:17:55;;;;;;;;;19.50;19.25;;;;;22.24;39.67;101881.03;5036493;28;45331;-54
2022/05/09 11:20:29;;;;;;;;;24.25;20.50;;;;;22.29;39.44;101879.97;5036600;28;45434;-54
2022/05/09 11:23:22;;;;;;;;;21.00;19.00;;;;;22.36;39.99;101876.09;5036886;28;45638;-53
2022/05/09 11:26:25;;;;;;;;;21.25;18.25;;;;;22.41;39.70;101874.16;5036440;28;45390;-47
2022/05/09 11:28:50;;;;;;;;;25.50;20.50;;;;;22.44;39.79;101873.97;5036399;28;45169;-47
2022/05/09 11:31:27;;;;;;;;;28.67;22.33;;;;;22.45;39.55;101872.22;5036529;28;45336;-48
2022/05/09 11:34:21;;;;;;;;;17.50;17.50;;;;;22.49;39.85;101864.06;5034288;28;45723;-53
2022/05/09 11:36:49;;;;;;;;;20.75;17.75;;;;;22.59;39.86;101874.19;5051860;28;47616;-50
2022/05/09 11:39:33;;;;;;;;;20.00;19.00;;;;;22.64;39.51;101866.91;5036351;28;45928;-49
2022/05/09 11:43:27;;;;;;;;;18.25;17.25;;;;;22.64;39.54;101865.13;5036342;28;45339;-53
2022/05/09 11:45:09;;;;;;;;;19.75;19.00;;;;;22.67;40.41;101864.09;5036632;28;45292;-54